sensor_id;sensor_type;location;lat;lon;timestamp;pressure;altitude;pressure_sealevel;temperature;humidity
14120;BME280;7138;49.246;9.100;2023-12-20T00:01:27;98970.84;;;6.28;80.03
14120;BME280;7138;49.246;9.100;2023-12-20T00:03:52;98972.53;;;6.22;80.49
14120;BME280;7138;49.246;9.100;2023-12-20T00:06:18;98961.06;;;6.20;80.64
14120;BME280;7138;49.246;9.100;2023-12-20T00:08:44;98965.84;;;6.25;80.49
14120;BME280;7138;49.246;9.100;2023-12-20T00:11:11;98961.66;;;6.29;80.27
14120;BME280;7138;49.246;9.100;2023-12-20T00:13:37;98967.75;;;6.18;80.45
14120;BME280;7138;49.246;9.100;2023-12-20T00:16:04;98953.72;;;6.21;80.29
14120;BME280;7138;49.246;9.100;2023-12-20T00:18:29;98952.06;;;6.20;80.97
14120;BME280;7138;49.246;9.100;2023-12-20T00:20:55;98949.38;;;6.13;80.35
14120;BME280;7138;49.246;9.100;2023-12-20T00:23:21;98947.69;;;6.12;81.46
14120;BME280;7138;49.246;9.100;2023-12-20T00:25:49;98939.38;;;6.07;80.87
14120;BME280;7138;49.246;9.100;2023-12-20T00:28:16;98950.44;;;6.05;81.00
14120;BME280;7138;49.246;9.100;2023-12-20T00:30:42;98946.88;;;6.12;80.95
14120;BME280;7138;49.246;9.100;2023-12-20T00:33:07;98951.47;;;6.11;80.98
14120;BME280;7138;49.246;9.100;2023-12-20T00:35:33;98951.69;;;6.09;80.86
14120;BME280;7138;49.246;9.100;2023-12-20T00:37:59;98941.66;;;6.10;81.66
14120;BME280;7138;49.246;9.100;2023-12-20T00:40:25;98946.03;;;6.04;82.19
14120;BME280;7138;49.246;9.100;2023-12-20T00:42:51;98947.72;;;6.05;82.40
14120;BME280;7138;49.246;9.100;2023-12-20T00:45:18;98933.50;;;6.03;82.09
14120;BME280;7138;49.246;9.100;2023-12-20T00:47:44;98939.75;;;6.11;82.32
14120;BME280;7138;49.246;9.100;2023-12-20T00:50:10;98943.72;;;6.15;81.53
14120;BME280;7138;49.246;9.100;2023-12-20T00:52:36;98936.00;;;6.05;81.87
14120;BME280;7138;49.246;9.100;2023-12-20T00:55:02;98931.63;;;6.04;82.36
14120;BME280;7138;49.246;9.100;2023-12-20T00:57:29;98927.69;;;6.00;83.25
14120;BME280;7138;49.246;9.100;2023-12-20T00:59:55;98923.47;;;6.04;81.85
14120;BME280;7138;49.246;9.100;2023-12-20T01:02:22;98920.97;;;6.02;81.75
14120;BME280;7138;49.246;9.100;2023-12-20T01:04:48;98918.69;;;5.99;83.12
14120;BME280;7138;49.246;9.100;2023-12-20T01:07:14;98917.25;;;5.97;82.34
14120;BME280;7138;49.246;9.100;2023-12-20T01:09:39;98924.38;;;5.91;82.83
14120;BME280;7138;49.246;9.100;2023-12-20T01:12:06;98933.13;;;5.87;83.30
14120;BME280;7138;49.246;9.100;2023-12-20T01:14:31;98924.97;;;5.93;83.14
14120;BME280;7138;49.246;9.100;2023-12-20T01:16:57;98927.91;;;5.98;83.22
14120;BME280;7138;49.246;9.100;2023-12-20T01:19:25;98928.13;;;5.97;82.93
14120;BME280;7138;49.246;9.100;2023-12-20T01:21:50;98925.59;;;5.89;83.65
14120;BME280;7138;49.246;9.100;2023-12-20T01:24:16;98930.19;;;5.88;83.85
14120;BME280;7138;49.246;9.100;2023-12-20T01:26:42;98921.00;;;5.82;84.30
14120;BME280;7138;49.246;9.100;2023-12-20T01:29:08;98916.41;;;5.83;83.61
14120;BME280;7138;49.246;9.100;2023-12-20T01:31:33;98909.28;;;5.89;83.58
14120;BME280;7138;49.246;9.100;2023-12-20T01:33:59;98918.06;;;5.84;84.60
14120;BME280;7138;49.246;9.100;2023-12-20T01:36:26;98921.00;;;5.82;84.27
14120;BME280;7138;49.246;9.100;2023-12-20T01:38:52;98916.00;;;5.86;84.66
14120;BME280;7138;49.246;9.100;2023-12-20T01:41:18;98913.91;;;5.88;83.90
14120;BME280;7138;49.246;9.100;2023-12-20T01:43:44;98907.00;;;5.99;84.21
14120;BME280;7138;49.246;9.100;2023-12-20T01:46:11;98916.81;;;6.00;84.04
14120;BME280;7138;49.246;9.100;2023-12-20T01:48:37;98904.91;;;5.94;83.42
14120;BME280;7138;49.246;9.100;2023-12-20T01:51:05;98906.78;;;6.00;83.49
14120;BME280;7138;49.246;9.100;2023-12-20T01:53:32;98914.94;;;5.87;84.30
14120;BME280;7138;49.246;9.100;2023-12-20T01:55:59;98908.88;;;5.98;83.60
14120;BME280;7138;49.246;9.100;2023-12-20T01:58:25;98901.97;;;5.89;83.91
14120;BME280;7138;49.246;9.100;2023-12-20T02:00:52;98902.00;;;5.82;84.19
14120;BME280;7138;49.246;9.100;2023-12-20T02:03:19;98905.75;;;5.88;83.70
14120;BME280;7138;49.246;9.100;2023-12-20T02:05:46;98908.09;;;5.78;84.67
14120;BME280;7138;49.246;9.100;2023-12-20T02:08:13;98906.63;;;5.75;84.60
14120;BME280;7138;49.246;9.100;2023-12-20T02:10:40;98906.59;;;5.82;83.51
14120;BME280;7138;49.246;9.100;2023-12-20T02:13:07;98910.78;;;5.78;84.56
14120;BME280;7138;49.246;9.100;2023-12-20T02:15:33;98921.47;;;5.73;84.41
14120;BME280;7138;49.246;9.100;2023-12-20T02:17:59;98911.63;;;5.72;83.83
14120;BME280;7138;49.246;9.100;2023-12-20T02:20:25;98905.19;;;5.66;84.36
14120;BME280;7138;49.246;9.100;2023-12-20T02:22:52;98910.63;;;5.66;84.49
14120;BME280;7138;49.246;9.100;2023-12-20T02:25:18;98911.06;;;5.57;85.29
14120;BME280;7138;49.246;9.100;2023-12-20T02:27:44;98905.59;;;5.63;84.15
14120;BME280;7138;49.246;9.100;2023-12-20T02:30:10;98908.75;;;5.67;84.08
14120;BME280;7138;49.246;9.100;2023-12-20T02:32:36;98909.97;;;5.77;84.30
14120;BME280;7138;49.246;9.100;2023-12-20T02:35:02;98906.00;;;5.73;84.48
14120;BME280;7138;49.246;9.100;2023-12-20T02:37:28;98902.28;;;5.61;84.32
14120;BME280;7138;49.246;9.100;2023-12-20T02:39:55;98898.50;;;5.69;84.51
14120;BME280;7138;49.246;9.100;2023-12-20T02:42:21;98897.88;;;5.67;83.83
14120;BME280;7138;49.246;9.100;2023-12-20T02:44:46;98891.56;;;5.79;83.41
14120;BME280;7138;49.246;9.100;2023-12-20T02:47:12;98907.66;;;5.81;83.67
14120;BME280;7138;49.246;9.100;2023-12-20T02:49:38;98906.81;;;5.74;83.10
14120;BME280;7138;49.246;9.100;2023-12-20T02:52:04;98900.97;;;5.77;83.27
14120;BME280;7138;49.246;9.100;2023-12-20T02:54:30;98907.03;;;5.72;83.81
14120;BME280;7138;49.246;9.100;2023-12-20T02:56:57;98904.31;;;5.72;83.66
14120;BME280;7138;49.246;9.100;2023-12-20T02:59:23;98913.31;;;5.73;83.67
14120;BME280;7138;49.246;9.100;2023-12-20T03:01:49;98918.34;;;5.76;83.82
14120;BME280;7138;49.246;9.100;2023-12-20T03:04:15;98914.53;;;5.84;84.47
14120;BME280;7138;49.246;9.100;2023-12-20T03:06:40;98911.81;;;5.84;83.57
14120;BME280;7138;49.246;9.100;2023-12-20T03:09:06;98913.47;;;5.85;83.97
14120;BME280;7138;49.246;9.100;2023-12-20T03:11:33;98911.00;;;5.76;83.54
14120;BME280;7138;49.246;9.100;2023-12-20T03:14:00;98912.69;;;5.77;83.24
14120;BME280;7138;49.246;9.100;2023-12-20T03:16:26;98911.41;;;5.73;84.13
14120;BME280;7138;49.246;9.100;2023-12-20T03:18:52;98908.53;;;5.75;83.87
14120;BME280;7138;49.246;9.100;2023-12-20T03:21:17;98918.34;;;5.76;83.76
14120;BME280;7138;49.246;9.100;2023-12-20T03:23:43;98912.06;;;5.75;83.78
14120;BME280;7138;49.246;9.100;2023-12-20T03:26:10;98912.91;;;5.69;84.51
14120;BME280;7138;49.246;9.100;2023-12-20T03:28:36;98917.69;;;5.74;83.68
14120;BME280;7138;49.246;9.100;2023-12-20T03:31:03;98913.50;;;5.78;84.20
14120;BME280;7138;49.246;9.100;2023-12-20T03:33:29;98912.91;;;5.76;83.64
14120;BME280;7138;49.246;9.100;2023-12-20T03:35:55;98926.44;;;5.82;84.36
14120;BME280;7138;49.246;9.100;2023-12-20T03:38:21;98925.38;;;5.84;83.40
14120;BME280;7138;49.246;9.100;2023-12-20T03:40:49;98923.94;;;5.81;84.18
14120;BME280;7138;49.246;9.100;2023-12-20T03:43:15;98922.28;;;5.80;84.28
14120;BME280;7138;49.246;9.100;2023-12-20T03:45:42;98911.41;;;5.73;83.65
14120;BME280;7138;49.246;9.100;2023-12-20T03:48:09;98907.03;;;5.72;83.63
14120;BME280;7138;49.246;9.100;2023-12-20T03:50:35;98894.94;;;5.75;83.74
14120;BME280;7138;49.246;9.100;2023-12-20T03:53:01;98905.97;;;5.80;83.92
14120;BME280;7138;49.246;9.100;2023-12-20T03:55:27;98901.97;;;5.89;82.97
14120;BME280;7138;49.246;9.100;2023-12-20T03:57:53;98908.25;;;5.90;83.06
14120;BME280;7138;49.246;9.100;2023-12-20T04:00:19;98903.47;;;5.92;83.65
14120;BME280;7138;49.246;9.100;2023-12-20T04:02:45;98909.72;;;5.99;82.80
14120;BME280;7138;49.246;9.100;2023-12-20T04:05:12;98906.38;;;5.90;83.03
14120;BME280;7138;49.246;9.100;2023-12-20T04:07:38;98900.09;;;5.96;82.36
14120;BME280;7138;49.246;9.100;2023-12-20T04:10:05;98913.88;;;5.95;83.43
14120;BME280;7138;49.246;9.100;2023-12-20T04:12:32;98924.75;;;5.95;82.67
14120;BME280;7138;49.246;9.100;2023-12-20T04:14:58;98931.03;;;5.95;82.56
14120;BME280;7138;49.246;9.100;2023-12-20T04:17:24;98931.47;;;5.86;83.28
14120;BME280;7138;49.246;9.100;2023-12-20T04:19:50;98944.00;;;5.87;82.98
14120;BME280;7138;49.246;9.100;2023-12-20T04:22:18;98941.13;;;5.75;84.05
14120;BME280;7138;49.246;9.100;2023-12-20T04:24:44;98927.53;;;5.75;84.29
14120;BME280;7138;49.246;9.100;2023-12-20T04:27:11;98931.91;;;5.76;83.29
14120;BME280;7138;49.246;9.100;2023-12-20T04:29:37;98934.59;;;5.82;83.53
14120;BME280;7138;49.246;9.100;2023-12-20T04:32:04;98943.34;;;5.85;83.10
14120;BME280;7138;49.246;9.100;2023-12-20T04:34:29;98942.13;;;5.87;82.92
14120;BME280;7138;49.246;9.100;2023-12-20T04:36:55;98945.25;;;5.84;84.36
14120;BME280;7138;49.246;9.100;2023-12-20T04:39:22;98935.22;;;5.85;84.10
14120;BME280;7138;49.246;9.100;2023-12-20T04:41:48;98934.59;;;5.89;84.09
14120;BME280;7138;49.246;9.100;2023-12-20T04:44:15;98934.63;;;5.76;84.43
14120;BME280;7138;49.246;9.100;2023-12-20T04:46:41;98948.66;;;5.66;84.91
14120;BME280;7138;49.246;9.100;2023-12-20T04:49:07;98949.28;;;5.75;84.44
14120;BME280;7138;49.246;9.100;2023-12-20T04:51:33;98965.34;;;5.76;84.70
14120;BME280;7138;49.246;9.100;2023-12-20T04:53:59;98960.34;;;5.67;85.55
14120;BME280;7138;49.246;9.100;2023-12-20T04:56:26;98964.53;;;5.76;85.24
14120;BME280;7138;49.246;9.100;2023-12-20T04:58:52;98958.22;;;5.82;84.91
14120;BME280;7138;49.246;9.100;2023-12-20T05:01:18;98962.38;;;5.85;84.58
14120;BME280;7138;49.246;9.100;2023-12-20T05:03:44;98963.44;;;5.84;84.49
14120;BME280;7138;49.246;9.100;2023-12-20T05:06:10;98973.69;;;5.88;84.49
14120;BME280;7138;49.246;9.100;2023-12-20T05:08:36;98982.47;;;5.90;84.73
14120;BME280;7138;49.246;9.100;2023-12-20T05:11:02;98989.75;;;5.90;83.96
14120;BME280;7138;49.246;9.100;2023-12-20T05:13:30;98980.38;;;5.92;84.51
14120;BME280;7138;49.246;9.100;2023-12-20T05:15:56;98991.84;;;6.01;83.79
14120;BME280;7138;49.246;9.100;2023-12-20T05:18:22;98992.28;;;5.85;85.50
14120;BME280;7138;49.246;9.100;2023-12-20T05:20:48;98998.78;;;5.77;84.80
14120;BME280;7138;49.246;9.100;2023-12-20T05:23:15;98990.41;;;5.85;85.08
14120;BME280;7138;49.246;9.100;2023-12-20T05:25:41;98994.19;;;5.91;84.34
14120;BME280;7138;49.246;9.100;2023-12-20T05:28:06;98999.19;;;5.94;84.91
14120;BME280;7138;49.246;9.100;2023-12-20T05:30:34;99005.66;;;5.99;83.81
14120;BME280;7138;49.246;9.100;2023-12-20T05:32:59;99003.34;;;6.03;83.93
14120;BME280;7138;49.246;9.100;2023-12-20T05:35:25;99012.94;;;6.05;84.56
14120;BME280;7138;49.246;9.100;2023-12-20T05:37:51;99013.38;;;6.09;83.75
14120;BME280;7138;49.246;9.100;2023-12-20T05:40:17;99007.09;;;6.08;84.29
14120;BME280;7138;49.246;9.100;2023-12-20T05:42:42;99011.31;;;5.91;85.16
14120;BME280;7138;49.246;9.100;2023-12-20T05:45:09;99012.16;;;5.98;84.45
14120;BME280;7138;49.246;9.100;2023-12-20T05:47:36;99018.19;;;6.00;83.86
14120;BME280;7138;49.246;9.100;2023-12-20T05:50:03;99018.41;;;5.99;85.09
14120;BME280;7138;49.246;9.100;2023-12-20T05:52:29;99014.66;;;6.00;85.00
14120;BME280;7138;49.246;9.100;2023-12-20T05:54:55;99021.75;;;6.07;84.11
14120;BME280;7138;49.246;9.100;2023-12-20T05:57:23;99018.38;;;6.12;83.92
14120;BME280;7138;49.246;9.100;2023-12-20T05:59:49;99033.41;;;6.15;84.37
14120;BME280;7138;49.246;9.100;2023-12-20T06:02:15;99022.31;;;6.16;84.54
14120;BME280;7138;49.246;9.100;2023-12-20T06:04:43;99033.66;;;6.06;84.33
14120;BME280;7138;49.246;9.100;2023-12-20T06:07:11;99038.00;;;6.21;83.55
14120;BME280;7138;49.246;9.100;2023-12-20T06:09:37;99036.72;;;6.30;82.99
14120;BME280;7138;49.246;9.100;2023-12-20T06:12:04;99043.41;;;6.34;83.87
14120;BME280;7138;49.246;9.100;2023-12-20T06:14:30;99037.94;;;6.41;82.58
14120;BME280;7138;49.246;9.100;2023-12-20T06:16:56;99044.84;;;6.36;83.65
14120;BME280;7138;49.246;9.100;2023-12-20T06:19:22;99046.13;;;6.34;83.48
14120;BME280;7138;49.246;9.100;2023-12-20T06:21:49;99048.38;;;6.44;83.43
14120;BME280;7138;49.246;9.100;2023-12-20T06:24:15;99046.28;;;6.46;82.19
14120;BME280;7138;49.246;9.100;2023-12-20T06:26:41;99042.56;;;6.27;83.35
14120;BME280;7138;49.246;9.100;2023-12-20T06:29:07;99047.59;;;6.30;83.78
14120;BME280;7138;49.246;9.100;2023-12-20T06:31:32;99049.03;;;6.39;83.69
14120;BME280;7138;49.246;9.100;2023-12-20T06:33:59;99055.72;;;6.43;83.59
14120;BME280;7138;49.246;9.100;2023-12-20T06:36:25;99060.94;;;6.45;83.16
14120;BME280;7138;49.246;9.100;2023-12-20T06:38:53;99058.88;;;6.40;82.61
14120;BME280;7138;49.246;9.100;2023-12-20T06:41:19;99059.09;;;6.38;82.72
14120;BME280;7138;49.246;9.100;2023-12-20T06:43:45;99070.16;;;6.44;83.03
14120;BME280;7138;49.246;9.100;2023-12-20T06:46:10;99076.41;;;6.44;83.45
14120;BME280;7138;49.246;9.100;2023-12-20T06:48:38;99081.84;;;6.51;82.44
14120;BME280;7138;49.246;9.100;2023-12-20T06:51:05;99078.25;;;6.57;82.80
14120;BME280;7138;49.246;9.100;2023-12-20T06:53:31;99081.63;;;6.46;82.45
14120;BME280;7138;49.246;9.100;2023-12-20T06:55:58;99080.81;;;6.45;82.97
14120;BME280;7138;49.246;9.100;2023-12-20T06:58:24;99098.56;;;6.48;83.26
14120;BME280;7138;49.246;9.100;2023-12-20T07:00:50;99116.38;;;6.37;82.93
14120;BME280;7138;49.246;9.100;2023-12-20T07:03:17;99117.88;;;6.40;82.96
14120;BME280;7138;49.246;9.100;2023-12-20T07:05:43;99099.44;;;6.35;83.28
14120;BME280;7138;49.246;9.100;2023-12-20T07:08:09;99109.28;;;6.43;82.91
14120;BME280;7138;49.246;9.100;2023-12-20T07:10:36;99111.38;;;6.41;82.21
14120;BME280;7138;49.246;9.100;2023-12-20T07:13:04;99118.53;;;6.28;82.07
14120;BME280;7138;49.246;9.100;2023-12-20T07:15:29;99114.13;;;6.27;81.61
14120;BME280;7138;49.246;9.100;2023-12-20T07:17:55;99113.47;;;6.25;81.88
14120;BME280;7138;49.246;9.100;2023-12-20T07:20:21;99121.44;;;6.27;82.25
14120;BME280;7138;49.246;9.100;2023-12-20T07:22:47;99123.53;;;6.25;81.67
14120;BME280;7138;49.246;9.100;2023-12-20T07:25:13;99130.84;;;6.24;81.17
14120;BME280;7138;49.246;9.100;2023-12-20T07:27:38;99133.19;;;6.07;81.20
14120;BME280;7138;49.246;9.100;2023-12-20T07:30:07;99143.00;;;6.02;80.90
14120;BME280;7138;49.246;9.100;2023-12-20T07:32:33;99131.09;;;6.09;80.89
14120;BME280;7138;49.246;9.100;2023-12-20T07:34:59;99130.25;;;6.09;82.07
14120;BME280;7138;49.246;9.100;2023-12-20T07:37:25;99122.94;;;6.09;81.22
14120;BME280;7138;49.246;9.100;2023-12-20T07:39:51;99128.38;;;6.09;81.98
14120;BME280;7138;49.246;9.100;2023-12-20T07:42:17;99121.88;;;6.04;81.34
14120;BME280;7138;49.246;9.100;2023-12-20T07:44:42;99119.59;;;6.01;81.77
14120;BME280;7138;49.246;9.100;2023-12-20T07:47:10;99122.31;;;5.94;81.49
14120;BME280;7138;49.246;9.100;2023-12-20T07:49:37;99123.97;;;5.95;81.43
14120;BME280;7138;49.246;9.100;2023-12-20T07:52:04;99117.94;;;6.00;82.23
14120;BME280;7138;49.246;9.100;2023-12-20T07:54:30;99117.09;;;5.99;80.59
14120;BME280;7138;49.246;9.100;2023-12-20T07:56:56;99124.41;;;5.99;81.46
14120;BME280;7138;49.246;9.100;2023-12-20T07:59:22;99123.13;;;5.95;80.69
14120;BME280;7138;49.246;9.100;2023-12-20T08:01:48;99114.16;;;5.88;81.17
14120;BME280;7138;49.246;9.100;2023-12-20T08:04:15;99118.53;;;5.89;81.43
14120;BME280;7138;49.246;9.100;2023-12-20T08:06:41;99139.66;;;5.87;80.86
14120;BME280;7138;49.246;9.100;2023-12-20T08:09:07;99140.72;;;5.92;80.56
14120;BME280;7138;49.246;9.100;2023-12-20T08:11:32;99152.00;;;6.02;81.26
14120;BME280;7138;49.246;9.100;2023-12-20T08:13:58;99149.69;;;6.06;81.36
14120;BME280;7138;49.246;9.100;2023-12-20T08:16:24;99144.25;;;6.13;82.18
14120;BME280;7138;49.246;9.100;2023-12-20T08:18:50;99154.06;;;6.14;82.50
14120;BME280;7138;49.246;9.100;2023-12-20T08:21:18;99146.53;;;6.22;82.61
14120;BME280;7138;49.246;9.100;2023-12-20T08:23:45;99163.06;;;6.34;82.35
14120;BME280;7138;49.246;9.100;2023-12-20T08:26:11;99163.47;;;6.31;81.59
14120;BME280;7138;49.246;9.100;2023-12-20T08:28:37;99162.63;;;6.44;82.07
14120;BME280;7138;49.246;9.100;2023-12-20T08:31:04;99156.75;;;6.53;81.47
14120;BME280;7138;49.246;9.100;2023-12-20T08:33:29;99150.06;;;6.49;80.50
14120;BME280;7138;49.246;9.100;2023-12-20T08:35:55;99159.03;;;6.56;80.99
14120;BME280;7138;49.246;9.100;2023-12-20T08:38:22;99161.13;;;6.54;81.11
14120;BME280;7138;49.246;9.100;2023-12-20T08:40:48;99162.63;;;6.50;81.71
14120;BME280;7138;49.246;9.100;2023-12-20T08:43:14;99174.13;;;6.46;82.12
14120;BME280;7138;49.246;9.100;2023-12-20T08:45:40;99169.28;;;6.54;82.72
14120;BME280;7138;49.246;9.100;2023-12-20T08:48:06;99156.75;;;6.60;82.09
14120;BME280;7138;49.246;9.100;2023-12-20T08:50:32;99142.03;;;6.74;81.11
14120;BME280;7138;49.246;9.100;2023-12-20T08:52:58;99150.81;;;6.76;81.44
14120;BME280;7138;49.246;9.100;2023-12-20T08:55:25;99158.53;;;6.86;80.68
14120;BME280;7138;49.246;9.100;2023-12-20T08:57:52;99149.28;;;6.93;80.32
14120;BME280;7138;49.246;9.100;2023-12-20T09:00:19;99162.28;;;6.91;80.23
14120;BME280;7138;49.246;9.100;2023-12-20T09:02:46;99168.31;;;7.00;80.60
14120;BME280;7138;49.246;9.100;2023-12-20T09:05:12;99162.47;;;6.96;79.89
14120;BME280;7138;49.246;9.100;2023-12-20T09:07:38;99159.91;;;7.02;79.66
14120;BME280;7138;49.246;9.100;2023-12-20T09:10:04;99169.97;;;7.01;79.66
14120;BME280;7138;49.246;9.100;2023-12-20T09:12:31;99166.78;;;7.11;79.23
14120;BME280;7138;49.246;9.100;2023-12-20T09:14:57;99168.69;;;7.10;78.46
14120;BME280;7138;49.246;9.100;2023-12-20T09:17:23;99171.78;;;7.20;78.07
14120;BME280;7138;49.246;9.100;2023-12-20T09:19:49;99180.78;;;7.21;78.85
14120;BME280;7138;49.246;9.100;2023-12-20T09:22:15;99172.13;;;7.37;78.22
14120;BME280;7138;49.246;9.100;2023-12-20T09:24:40;99173.50;;;7.53;77.50
14120;BME280;7138;49.246;9.100;2023-12-20T09:27:06;99171.78;;;7.59;75.65
14120;BME280;7138;49.246;9.100;2023-12-20T09:29:33;99172.44;;;7.54;75.35
14120;BME280;7138;49.246;9.100;2023-12-20T09:31:59;99169.53;;;7.49;76.83
14120;BME280;7138;49.246;9.100;2023-12-20T09:34:25;99179.94;;;7.27;75.02
14120;BME280;7138;49.246;9.100;2023-12-20T09:36:52;99170.03;;;7.33;76.45
14120;BME280;7138;49.246;9.100;2023-12-20T09:39:20;99179.47;;;7.37;77.32
14120;BME280;7138;49.246;9.100;2023-12-20T09:42:00;99178.66;;;7.23;75.50
14120;BME280;7138;49.246;9.100;2023-12-20T09:44:27;99176.16;;;7.28;76.28
14120;BME280;7138;49.246;9.100;2023-12-20T09:46:56;99178.34;;;7.06;75.61
14120;BME280;7138;49.246;9.100;2023-12-20T09:49:22;99179.56;;;7.10;76.75
14120;BME280;7138;49.246;9.100;2023-12-20T09:51:51;99176.91;;;7.04;76.27
14120;BME280;7138;49.246;9.100;2023-12-20T09:54:18;99181.28;;;7.05;76.49
14120;BME280;7138;49.246;9.100;2023-12-20T09:56:44;99188.00;;;7.02;76.96
14120;BME280;7138;49.246;9.100;2023-12-20T09:59:10;99190.25;;;7.12;76.00
14120;BME280;7138;49.246;9.100;2023-12-20T10:01:38;99193.16;;;7.17;75.36
14120;BME280;7138;49.246;9.100;2023-12-20T10:04:08;99195.91;;;7.17;75.13
14120;BME280;7138;49.246;9.100;2023-12-20T10:06:36;99185.63;;;7.19;75.66
14120;BME280;7138;49.246;9.100;2023-12-20T10:09:02;99185.19;;;7.22;74.05
14120;BME280;7138;49.246;9.100;2023-12-20T10:11:28;99185.00;;;7.17;74.78
14120;BME280;7138;49.246;9.100;2023-12-20T10:13:59;99177.47;;;7.12;75.24
14120;BME280;7138;49.246;9.100;2023-12-20T10:16:28;99177.28;;;7.07;75.55
14120;BME280;7138;49.246;9.100;2023-12-20T10:18:54;99174.41;;;7.02;74.90
14120;BME280;7138;49.246;9.100;2023-12-20T10:21:22;99173.38;;;6.90;75.30
14120;BME280;7138;49.246;9.100;2023-12-20T10:23:49;99172.13;;;6.86;75.52
14120;BME280;7138;49.246;9.100;2023-12-20T10:26:21;99172.97;;;6.86;75.71
14120;BME280;7138;49.246;9.100;2023-12-20T10:28:50;99173.19;;;6.85;75.44
14120;BME280;7138;49.246;9.100;2023-12-20T10:31:27;99173.25;;;6.72;75.60
14120;BME280;7138;49.246;9.100;2023-12-20T10:33:56;99165.88;;;6.79;76.05
14120;BME280;7138;49.246;9.100;2023-12-20T10:36:25;99163.75;;;6.94;76.24
14120;BME280;7138;49.246;9.100;2023-12-20T10:38:53;99170.56;;;7.10;75.31
14120;BME280;7138;49.246;9.100;2023-12-20T10:41:25;99166.03;;;6.97;74.00
14120;BME280;7138;49.246;9.100;2023-12-20T10:43:52;99167.00;;;7.09;75.39
14120;BME280;7138;49.246;9.100;2023-12-20T10:46:19;99159.47;;;7.11;73.91
14120;BME280;7138;49.246;9.100;2023-12-20T10:48:46;99153.84;;;7.06;72.34
14120;BME280;7138;49.246;9.100;2023-12-20T10:51:17;99155.13;;;7.04;71.72
14120;BME280;7138;49.246;9.100;2023-12-20T10:53:47;99154.97;;;6.92;72.22
14120;BME280;7138;49.246;9.100;2023-12-20T10:56:16;99155.94;;;7.04;74.41
14120;BME280;7138;49.246;9.100;2023-12-20T10:58:44;99141.44;;;7.10;73.05
14120;BME280;7138;49.246;9.100;2023-12-20T11:01:13;99150.75;;;6.96;72.66
14120;BME280;7138;49.246;9.100;2023-12-20T11:03:46;99148.63;;;6.98;73.44
14120;BME280;7138;49.246;9.100;2023-12-20T11:06:27;99143.13;;;7.11;73.05
14120;BME280;7138;49.246;9.100;2023-12-20T11:09:06;99141.69;;;7.09;72.86
14120;BME280;7138;49.246;9.100;2023-12-20T11:11:55;99143.13;;;7.11;72.67
14120;BME280;7138;49.246;9.100;2023-12-20T11:14:27;99134.09;;;7.17;71.85
14120;BME280;7138;49.246;9.100;2023-12-20T11:17:07;99131.66;;;7.03;69.92
14120;BME280;7138;49.246;9.100;2023-12-20T11:19:37;99136.69;;;6.99;70.68
14120;BME280;7138;49.246;9.100;2023-12-20T11:22:04;99140.69;;;6.96;71.08
14120;BME280;7138;49.246;9.100;2023-12-20T11:24:33;99138.31;;;7.13;72.21
14120;BME280;7138;49.246;9.100;2023-12-20T11:27:00;99132.19;;;7.24;71.58
14120;BME280;7138;49.246;9.100;2023-12-20T11:29:31;99141.19;;;7.25;70.45
14120;BME280;7138;49.246;9.100;2023-12-20T11:31:57;99133.66;;;7.20;69.78
14120;BME280;7138;49.246;9.100;2023-12-20T11:34:28;99123.31;;;7.36;71.48
14120;BME280;7138;49.246;9.100;2023-12-20T11:36:58;99116.16;;;7.41;70.71
14120;BME280;7138;49.246;9.100;2023-12-20T11:39:26;99102.59;;;7.35;69.51
14120;BME280;7138;49.246;9.100;2023-12-20T11:41:56;99107.50;;;7.51;70.99
14120;BME280;7138;49.246;9.100;2023-12-20T11:44:23;99110.22;;;7.51;71.26
14120;BME280;7138;49.246;9.100;2023-12-20T11:46:50;99116.09;;;7.48;70.17
14120;BME280;7138;49.246;9.100;2023-12-20T11:49:16;99112.56;;;7.47;69.64
14120;BME280;7138;49.246;9.100;2023-12-20T11:51:42;99114.34;;;7.29;69.33
14120;BME280;7138;49.246;9.100;2023-12-20T11:54:09;99111.94;;;7.14;69.56
14120;BME280;7138;49.246;9.100;2023-12-20T11:56:36;99116.59;;;7.00;69.93
14120;BME280;7138;49.246;9.100;2023-12-20T11:59:03;99112.41;;;6.97;71.41
14120;BME280;7138;49.246;9.100;2023-12-20T12:01:31;99109.47;;;6.99;70.52
14120;BME280;7138;49.246;9.100;2023-12-20T12:04:03;99100.91;;;6.95;69.15
14120;BME280;7138;49.246;9.100;2023-12-20T12:06:28;99098.63;;;6.92;70.32
14120;BME280;7138;49.246;9.100;2023-12-20T12:08:54;99105.09;;;6.98;70.81
14120;BME280;7138;49.246;9.100;2023-12-20T12:11:21;99112.41;;;7.04;70.89
14120;BME280;7138;49.246;9.100;2023-12-20T12:13:47;99115.72;;;7.06;71.62
14120;BME280;7138;49.246;9.100;2023-12-20T12:16:17;99096.88;;;7.05;71.33
14120;BME280;7138;49.246;9.100;2023-12-20T12:18:43;99098.78;;;7.04;71.26
14120;BME280;7138;49.246;9.100;2023-12-20T12:21:09;99094.03;;;6.93;72.15
14120;BME280;7138;49.246;9.100;2023-12-20T12:23:35;99093.66;;;6.83;72.69
14120;BME280;7138;49.246;9.100;2023-12-20T12:26:04;99085.91;;;6.80;72.85
14120;BME280;7138;49.246;9.100;2023-12-20T12:28:30;99081.28;;;6.87;73.65
14120;BME280;7138;49.246;9.100;2023-12-20T12:30:58;99090.34;;;6.74;73.25
14120;BME280;7138;49.246;9.100;2023-12-20T12:33:26;99092.00;;;6.75;73.80
14120;BME280;7138;49.246;9.100;2023-12-20T12:35:52;99097.63;;;6.80;74.21
14120;BME280;7138;49.246;9.100;2023-12-20T12:38:20;99087.75;;;6.86;73.71
14120;BME280;7138;49.246;9.100;2023-12-20T12:40:46;99089.22;;;6.88;73.45
14120;BME280;7138;49.246;9.100;2023-12-20T12:43:12;99088.63;;;6.80;73.73
14120;BME280;7138;49.246;9.100;2023-12-20T12:45:38;99089.25;;;6.82;74.59
14120;BME280;7138;49.246;9.100;2023-12-20T12:48:06;99098.00;;;6.90;73.47
14120;BME280;7138;49.246;9.100;2023-12-20T12:50:33;99099.84;;;6.96;73.38
14120;BME280;7138;49.246;9.100;2023-12-20T12:52:59;99092.97;;;6.94;73.50
14120;BME280;7138;49.246;9.100;2023-12-20T12:55:25;99093.44;;;6.84;73.40
14120;BME280;7138;49.246;9.100;2023-12-20T12:57:51;99102.59;;;6.90;72.87
14120;BME280;7138;49.246;9.100;2023-12-20T13:00:18;99100.78;;;6.77;74.04
14120;BME280;7138;49.246;9.100;2023-12-20T13:02:45;99099.34;;;6.75;73.74
14120;BME280;7138;49.246;9.100;2023-12-20T13:05:10;99095.50;;;6.89;73.82
14120;BME280;7138;49.246;9.100;2023-12-20T13:07:38;99091.41;;;6.66;74.11
14120;BME280;7138;49.246;9.100;2023-12-20T13:10:06;99091.63;;;6.65;74.06
14120;BME280;7138;49.246;9.100;2023-12-20T13:12:32;99095.44;;;6.51;74.81
14120;BME280;7138;49.246;9.100;2023-12-20T13:14:58;99094.84;;;6.42;76.02
14120;BME280;7138;49.246;9.100;2023-12-20T13:17:23;99096.72;;;6.42;75.00
14120;BME280;7138;49.246;9.100;2023-12-20T13:19:49;99089.41;;;6.42;75.38